SHT13H EGNT-EGLL
Flight info
| Callsign | SHT13H |
|---|---|
| Flight time | N/A |
| Altitude | 31000 |
| Route | DCT GIRLI P18 GASKO P16 RIBEL UP16 CROFT DCT NUGRA NUGRA2H |
| Aircraft | A320/M-SDE3FGHIJ1RWXY/S |
Departure
| Time | 2026-05-06 18:10 |
|---|---|
| Airport | Newcastle International Airport (EGNT) |
Arrival
| Time | N/A |
|---|---|
| Airport | London Heathrow Airport (EGLL) |
| Time | Latitude | Longitude | Altitude | Speed | Heading |
|---|---|---|---|---|---|
| 2026-05-06 17:48 | 55.03673 | -1.70844 | 267 ft | 0 kts | 4° |
| 2026-05-06 18:02 | 55.03658 | -1.70846 | 267 ft | 4 kts | 4° |
| 2026-05-06 18:03 | 55.03637 | -1.70849 | 267 ft | 4 kts | 2° |
| 2026-05-06 18:03 | 55.03612 | -1.70844 | 267 ft | 4 kts | 352° |
| 2026-05-06 18:03 | 55.03592 | -1.70842 | 267 ft | 4 kts | 11° |
| 2026-05-06 18:03 | 55.03583 | -1.70844 | 267 ft | 0 kts | 4° |
| 2026-05-06 18:05 | 55.03594 | -1.70833 | 267 ft | 3 kts | 52° |
| 2026-05-06 18:05 | 55.03597 | -1.70759 | 267 ft | 9 kts | 92° |
| 2026-05-06 18:05 | 55.03567 | -1.70646 | 267 ft | 12 kts | 155° |
| 2026-05-06 18:06 | 55.03475 | -1.70645 | 268 ft | 11 kts | 181° |
| 2026-05-06 18:06 | 55.03455 | -1.70645 | 268 ft | 0 kts | 181° |
| 2026-05-06 18:07 | 55.03452 | -1.70646 | 268 ft | 3 kts | 181° |
| 2026-05-06 18:07 | 55.03387 | -1.70635 | 268 ft | 13 kts | 154° |
| 2026-05-06 18:07 | 55.03380 | -1.70537 | 267 ft | 10 kts | 68° |
| 2026-05-06 18:08 | 55.03385 | -1.70517 | 267 ft | 3 kts | 66° |
| 2026-05-06 18:08 | 55.03387 | -1.70510 | 267 ft | 0 kts | 66° |
| 2026-05-06 18:09 | 55.03390 | -1.70497 | 267 ft | 8 kts | 66° |
| 2026-05-06 18:10 | 55.03525 | -1.69982 | 262 ft | 84 kts | 66° |
| 2026-05-06 18:10 | 55.03857 | -1.68749 | 255 ft | 140 kts | 68° |
| 2026-05-06 18:10 | 55.04264 | -1.67148 | 719 ft | 144 kts | 69° |
| 2026-05-06 18:10 | 55.04675 | -1.65563 | 1398 ft | 143 kts | 67° |
| 2026-05-06 18:11 | 55.05114 | -1.63909 | 1831 ft | 160 kts | 67° |
| 2026-05-06 18:11 | 55.05615 | -1.62021 | 2136 ft | 185 kts | 66° |
| 2026-05-06 18:11 | 55.06186 | -1.59864 | 2622 ft | 205 kts | 66° |
| 2026-05-06 18:11 | 55.06611 | -1.57464 | 3358 ft | 212 kts | 90° |
| 2026-05-06 18:12 | 55.06202 | -1.55002 | 4090 ft | 219 kts | 126° |
| 2026-05-06 18:12 | 55.04955 | -1.53337 | 4576 ft | 240 kts | 165° |
| 2026-05-06 18:12 | 55.03231 | -1.53043 | 5105 ft | 260 kts | 181° |
| 2026-05-06 18:12 | 55.01413 | -1.53049 | 5947 ft | 268 kts | 182° |
| 2026-05-06 18:13 | 54.99533 | -1.53106 | 6858 ft | 273 kts | 183° |
| 2026-05-06 18:13 | 54.97653 | -1.53595 | 7755 ft | 275 kts | 198° |
| 2026-05-06 18:13 | 54.95884 | -1.54891 | 8669 ft | 277 kts | 211° |
| 2026-05-06 18:13 | 54.94231 | -1.56638 | 9609 ft | 280 kts | 212° |
| 2026-05-06 18:14 | 54.92550 | -1.58396 | 10338 ft | 290 kts | 212° |
| 2026-05-06 18:14 | 54.90747 | -1.60263 | 10627 ft | 313 kts | 212° |
| 2026-05-06 18:14 | 54.88817 | -1.62245 | 11051 ft | 328 kts | 212° |
| 2026-05-06 18:14 | 54.86859 | -1.64249 | 11744 ft | 334 kts | 212° |
| 2026-05-06 18:15 | 54.84842 | -1.66309 | 12490 ft | 338 kts | 212° |
| 2026-05-06 18:15 | 54.82807 | -1.68390 | 13253 ft | 342 kts | 212° |
| 2026-05-06 18:15 | 54.80747 | -1.70502 | 13985 ft | 346 kts | 212° |
| 2026-05-06 18:15 | 54.78663 | -1.72639 | 14671 ft | 349 kts | 212° |
| 2026-05-06 18:16 | 54.76568 | -1.74780 | 15346 ft | 352 kts | 212° |
| 2026-05-06 18:16 | 54.74447 | -1.76943 | 16015 ft | 355 kts | 213° |
| 2026-05-06 18:16 | 54.72314 | -1.79049 | 16675 ft | 359 kts | 208° |
| 2026-05-06 18:16 | 54.69966 | -1.80609 | 17355 ft | 365 kts | 198° |
| 2026-05-06 18:17 | 54.67600 | -1.81804 | 18008 ft | 367 kts | 201° |
| 2026-05-06 18:17 | 54.65199 | -1.83355 | 18649 ft | 369 kts | 205° |
| 2026-05-06 18:17 | 54.62859 | -1.85073 | 19234 ft | 372 kts | 206° |
| 2026-05-06 18:17 | 54.60484 | -1.86888 | 19839 ft | 376 kts | 207° |
| 2026-05-06 18:18 | 54.58082 | -1.88715 | 20435 ft | 379 kts | 206° |
| 2026-05-06 18:18 | 54.55647 | -1.90519 | 21016 ft | 383 kts | 206° |
| 2026-05-06 18:18 | 54.53175 | -1.92295 | 21589 ft | 387 kts | 205° |
| 2026-05-06 18:18 | 54.50660 | -1.94060 | 22138 ft | 391 kts | 205° |
| 2026-05-06 18:19 | 54.48127 | -1.95810 | 22697 ft | 395 kts | 204° |
| 2026-05-06 18:19 | 54.45560 | -1.97574 | 23238 ft | 399 kts | 204° |
| 2026-05-06 18:19 | 54.42968 | -1.99357 | 23737 ft | 403 kts | 204° |
| 2026-05-06 18:19 | 54.40399 | -2.01125 | 24176 ft | 406 kts | 204° |
| 2026-05-06 18:20 | 54.37771 | -2.02937 | 24608 ft | 409 kts | 204° |
| 2026-05-06 18:20 | 54.35112 | -2.04774 | 25031 ft | 412 kts | 204° |
| 2026-05-06 18:20 | 54.32441 | -2.06619 | 25450 ft | 416 kts | 204° |
| 2026-05-06 18:20 | 54.29749 | -2.08474 | 25853 ft | 419 kts | 204° |
| 2026-05-06 18:21 | 54.27033 | -2.10343 | 26256 ft | 422 kts | 205° |
| 2026-05-06 18:21 | 54.24304 | -2.12225 | 26645 ft | 425 kts | 205° |
| 2026-05-06 18:21 | 54.21545 | -2.14122 | 27031 ft | 429 kts | 204° |
| 2026-05-06 18:21 | 54.18806 | -2.16001 | 27412 ft | 432 kts | 204° |
| 2026-05-06 18:22 | 54.16009 | -2.17916 | 27797 ft | 435 kts | 204° |
| 2026-05-06 18:22 | 54.13193 | -2.19837 | 28173 ft | 438 kts | 204° |
| 2026-05-06 18:22 | 54.10355 | -2.21772 | 28541 ft | 441 kts | 204° |
| 2026-05-06 18:22 | 54.07490 | -2.23723 | 28901 ft | 444 kts | 204° |
| 2026-05-06 18:23 | 54.04606 | -2.25687 | 29269 ft | 447 kts | 204° |
| 2026-05-06 18:23 | 54.01710 | -2.27656 | 29614 ft | 451 kts | 204° |
| 2026-05-06 18:23 | 53.98789 | -2.29642 | 29963 ft | 454 kts | 204° |
| 2026-05-06 18:23 | 53.95849 | -2.31644 | 30271 ft | 457 kts | 204° |
| 2026-05-06 18:24 | 53.92926 | -2.33626 | 30568 ft | 459 kts | 204° |
| 2026-05-06 18:24 | 53.89949 | -2.35638 | 30863 ft | 462 kts | 204° |
| 2026-05-06 18:24 | 53.86970 | -2.37646 | 31001 ft | 460 kts | 204° |
| 2026-05-06 18:24 | 53.84036 | -2.39617 | 31032 ft | 449 kts | 204° |
| 2026-05-06 18:25 | 53.78277 | -2.43469 | 31029 ft | 443 kts | 204° |
| 2026-05-06 18:25 | 53.72549 | -2.47295 | 31027 ft | 443 kts | 204° |
| 2026-05-06 18:26 | 53.66805 | -2.51028 | 31026 ft | 444 kts | 199° |
| 2026-05-06 18:26 | 53.60689 | -2.52433 | 31025 ft | 447 kts | 179° |
| 2026-05-06 18:27 | 53.54587 | -2.50647 | 31027 ft | 449 kts | 167° |
| 2026-05-06 18:27 | 53.48517 | -2.48227 | 31030 ft | 449 kts | 167° |
| 2026-05-06 18:28 | 53.42439 | -2.45838 | 31033 ft | 448 kts | 167° |
| 2026-05-06 18:28 | 53.36368 | -2.43454 | 31039 ft | 448 kts | 167° |
| 2026-05-06 18:29 | 53.30300 | -2.41069 | 31038 ft | 448 kts | 167° |
| 2026-05-06 18:29 | 53.24274 | -2.38700 | 31058 ft | 447 kts | 167° |
| 2026-05-06 18:30 | 53.18270 | -2.36334 | 31048 ft | 447 kts | 167° |